Chatham, Illinois
Current Conditions -  °F | °C
As of 3:52 PM on Saturday 25 Oct 2014 (Local Time) from KSPI Reporting Station
Clear Clear  
Wind Chill: 80°   Ceiling: Unl
Heat Index: 80°   Visibility: 10mi
Dew Point: 47°   Wind: 8mph
Humidity: 31%   Direction: 340°NNW
Pressure: 30"   Gusts: NA
Location:  39.68°N, 89.7°W
Report Text: KSPI 252052Z AUTO 34007KT 10SM CLR 27/08 A3000 RMK AO2 SLP155 T02670083 56006
Loading
Personal Weather Stations






























Interactive Weather Map
Tropical Storm Tracking
New forecast layout! Learn more

10-Day Weather Forecast

Advertisements
Track Severe Weather on mobile